createdAt,value
2018-09-21T00:02:06.461Z,19.81
2018-09-21T00:04:33.395Z,19.81
2018-09-21T00:07:00.334Z,19.81
2018-09-21T00:09:27.272Z,19.81
2018-09-21T00:11:54.215Z,19.75
2018-09-21T00:14:21.137Z,19.75
2018-09-21T00:16:48.067Z,19.81
2018-09-21T00:19:14.968Z,19.81
2018-09-21T00:21:41.861Z,19.81
2018-09-21T00:24:08.785Z,19.87
2018-09-21T00:26:35.683Z,19.94
2018-09-21T00:32:15.859Z,20.00
2018-09-21T00:34:42.801Z,20.06
2018-09-21T00:37:09.735Z,20.00
2018-09-21T00:39:36.657Z,20.00
2018-09-21T00:42:03.829Z,20.00
2018-09-21T00:44:30.774Z,19.94
2018-09-21T00:46:57.733Z,19.94
2018-09-21T00:49:24.750Z,19.94
2018-09-21T00:51:51.691Z,19.87
2018-09-21T00:54:19.464Z,19.81
2018-09-21T00:56:46.373Z,19.81
2018-09-21T00:59:13.346Z,19.81
2018-09-21T01:01:40.920Z,19.81
2018-09-21T01:04:07.839Z,19.87
2018-09-21T01:06:34.745Z,19.87
2018-09-21T01:09:01.681Z,19.87
2018-09-21T01:11:28.583Z,19.87
2018-09-21T01:40:08.963Z,19.87
2018-09-21T01:42:35.887Z,19.87
2018-09-21T01:45:06.009Z,19.81
2018-09-21T01:47:32.982Z,19.81
2018-09-21T01:50:02.565Z,19.81
2018-09-21T01:52:29.451Z,19.94
2018-09-21T01:54:56.349Z,19.87
2018-09-21T01:57:23.467Z,19.81
2018-09-21T01:59:50.428Z,19.81
2018-09-21T02:02:17.357Z,19.81
2018-09-21T02:04:44.291Z,19.75
2018-09-21T02:07:11.848Z,19.81
2018-09-21T02:09:38.940Z,19.75
2018-09-21T02:12:05.871Z,19.75
2018-09-21T02:14:33.039Z,19.69
2018-09-21T02:16:59.991Z,19.69
2018-09-21T02:19:26.950Z,19.75
2018-09-21T02:21:53.923Z,19.75
2018-09-21T02:24:22.033Z,19.69
2018-09-21T02:26:49.370Z,19.87
2018-09-21T02:29:17.249Z,19.94
2018-09-21T02:31:44.579Z,19.75
2018-09-21T02:34:11.515Z,20.00
2018-09-21T02:36:38.536Z,19.75
2018-09-21T02:39:06.468Z,19.69
2018-09-21T02:41:33.555Z,20.19
2018-09-21T02:44:00.447Z,19.81
2018-09-21T02:46:27.658Z,20.00
2018-09-21T02:48:54.687Z,19.81
2018-09-21T02:51:22.934Z,19.81
2018-09-21T02:53:49.890Z,19.75
2018-09-21T02:56:17.233Z,19.69
2018-09-21T02:58:44.216Z,19.62
2018-09-21T03:01:11.164Z,19.62
2018-09-21T03:03:38.072Z,19.62
2018-09-21T03:06:05.059Z,20.06
2018-09-21T03:08:32.852Z,19.75
2018-09-21T03:15:53.204Z,19.50
2018-09-21T03:18:20.665Z,19.56
2018-09-21T03:20:47.627Z,19.62
2018-09-21T03:23:14.524Z,19.56
2018-09-21T03:25:41.398Z,19.50
2018-09-21T03:28:08.307Z,19.44
2018-09-21T03:30:35.290Z,19.56
2018-09-21T03:33:03.102Z,19.56
2018-09-21T03:35:30.028Z,19.56
2018-09-21T03:37:58.635Z,19.50
2018-09-21T03:40:27.031Z,19.50
2018-09-21T03:42:53.945Z,19.62
2018-09-21T03:45:20.842Z,19.56
2018-09-21T03:47:47.763Z,19.56
2018-09-21T03:50:14.676Z,19.56
2018-09-21T03:52:41.663Z,19.56
2018-09-21T03:55:08.896Z,19.62
2018-09-21T03:57:35.842Z,19.69
2018-09-21T04:00:02.806Z,19.62
2018-09-21T04:02:29.751Z,19.62
2018-09-21T04:04:58.604Z,19.75
2018-09-21T04:07:26.407Z,19.69
2018-09-21T04:09:53.356Z,19.62
2018-09-21T04:12:20.292Z,19.69
2018-09-21T04:14:52.355Z,19.69
2018-09-21T04:17:19.265Z,19.81
2018-09-21T04:19:46.212Z,19.69
2018-09-21T04:22:13.837Z,19.75
2018-09-21T04:24:40.782Z,19.75
2018-09-21T04:27:07.758Z,19.81
2018-09-21T04:29:34.770Z,19.75
2018-09-21T04:32:01.661Z,19.81
2018-09-21T04:34:28.604Z,19.75
2018-09-21T04:36:55.529Z,19.75
2018-09-21T04:39:22.503Z,19.75
2018-09-21T04:41:49.474Z,19.75
2018-09-21T04:44:16.373Z,19.81
2018-09-21T04:46:45.425Z,19.81
2018-09-21T04:49:13.363Z,19.75
2018-09-21T04:51:40.294Z,19.81
2018-09-21T04:54:07.217Z,19.81
2018-09-21T04:56:34.107Z,19.87
2018-09-21T04:59:01.067Z,19.81
2018-09-21T05:01:28.101Z,19.81
2018-09-21T05:03:54.995Z,19.87
2018-09-21T05:06:27.623Z,20.06
2018-09-21T05:08:55.854Z,19.87
2018-09-21T05:11:22.801Z,19.81
2018-09-21T05:13:49.853Z,19.81
2018-09-21T05:16:16.620Z,19.81
2018-09-21T05:18:43.553Z,19.75
2018-09-21T05:21:10.461Z,19.81
2018-09-21T05:23:37.967Z,19.87
2018-09-21T05:26:05.159Z,19.87
2018-09-21T05:28:32.100Z,19.94
2018-09-21T05:30:58.995Z,19.87
2018-09-21T05:33:27.827Z,20.12
2018-09-21T05:35:55.668Z,20.00
2018-09-21T05:38:22.662Z,20.12
2018-09-21T05:40:49.561Z,20.06
2018-09-21T05:43:16.517Z,20.06
2018-09-21T05:45:43.429Z,20.19
2018-09-21T05:48:10.413Z,20.06
2018-09-21T05:50:37.314Z,20.12
2018-09-21T05:53:04.649Z,20.12
2018-09-21T05:55:31.545Z,20.06
2018-09-21T05:57:58.465Z,20.19
2018-09-21T06:00:25.539Z,20.25
2018-09-21T06:02:53.517Z,20.56
2018-09-21T06:05:20.466Z,20.69
2018-09-21T06:07:47.501Z,20.50
2018-09-21T06:10:14.511Z,20.56
2018-09-21T06:12:41.469Z,20.50
2018-09-21T06:15:09.167Z,20.62
2018-09-21T06:17:36.104Z,20.62
2018-09-21T06:20:11.977Z,20.69
2018-09-21T06:22:30.202Z,20.62
2018-09-21T06:24:57.245Z,20.75
2018-09-21T06:27:24.391Z,20.75
2018-09-21T06:29:51.335Z,20.94
2018-09-21T06:32:18.785Z,20.81
2018-09-21T06:34:45.689Z,21.06
2018-09-21T06:37:12.777Z,21.06
2018-09-21T06:39:39.752Z,21.37
2018-09-21T06:42:06.702Z,21.31
2018-09-21T06:44:33.672Z,21.25
2018-09-21T06:47:00.615Z,21.44
2018-09-21T06:49:27.744Z,21.50
2018-09-21T06:51:56.370Z,21.56
2018-09-21T06:54:23.409Z,21.50
2018-09-21T06:56:50.910Z,21.50
2018-09-21T06:59:17.884Z,21.50
2018-09-21T07:01:45.466Z,21.75
2018-09-21T07:04:12.463Z,22.00
2018-09-21T07:06:39.448Z,22.13
2018-09-21T07:09:09.022Z,22.13
2018-09-21T07:11:35.994Z,22.06
2018-09-21T07:14:02.958Z,22.25
2018-09-21T07:16:29.998Z,22.19
2018-09-21T07:18:56.921Z,22.56
2018-09-21T07:21:23.889Z,22.50
2018-09-21T07:23:50.891Z,22.50
2018-09-21T07:26:17.799Z,22.56
2018-09-21T07:28:44.791Z,22.50
2018-09-21T07:31:11.761Z,22.56
2018-09-21T07:33:38.889Z,22.81
2018-09-21T07:36:05.892Z,22.87
2018-09-21T07:38:32.827Z,22.94
2018-09-21T07:40:59.810Z,23.12
2018-09-21T07:43:26.774Z,23.00
2018-09-21T07:45:53.746Z,22.81
2018-09-21T07:48:20.678Z,22.94
2018-09-21T07:50:47.636Z,22.94
2018-09-21T07:53:14.620Z,22.94
2018-09-21T07:55:41.591Z,22.81
2018-09-21T07:58:08.518Z,22.87
2018-09-21T08:00:35.571Z,23.00
2018-09-21T08:03:02.519Z,23.06
2018-09-21T08:05:32.143Z,23.25
2018-09-21T08:07:59.370Z,23.44
2018-09-21T08:10:26.311Z,23.50
2018-09-21T08:12:53.374Z,23.44
2018-09-21T08:15:20.287Z,23.56
2018-09-21T08:17:47.206Z,23.75
2018-09-21T08:20:14.121Z,23.94
2018-09-21T08:22:41.050Z,23.69
2018-09-21T08:25:08.005Z,23.81
2018-09-21T08:27:34.976Z,24.00
2018-09-21T08:34:56.136Z,24.31
2018-09-21T08:37:23.161Z,24.44
2018-09-21T08:39:50.050Z,24.50
2018-09-21T08:42:17.113Z,24.44
2018-09-21T08:44:50.587Z,24.56
2018-09-21T08:47:17.579Z,24.69
2018-09-21T08:49:44.532Z,24.69
2018-09-21T08:52:11.473Z,24.69
2018-09-21T08:54:38.447Z,24.87
2018-09-21T08:57:05.411Z,25.25
2018-09-21T08:59:32.375Z,25.19
2018-09-21T09:01:59.327Z,25.37
2018-09-21T09:04:26.254Z,25.56
2018-09-21T09:06:53.291Z,25.69
2018-09-21T09:09:23.747Z,25.75
2018-09-21T09:11:50.734Z,25.50
2018-09-21T09:14:17.707Z,25.81
2018-09-21T09:16:44.736Z,25.81
2018-09-21T09:19:11.705Z,25.56
2018-09-21T09:21:38.684Z,25.75
2018-09-21T09:24:05.778Z,25.88
2018-09-21T09:26:32.760Z,25.88
2018-09-21T09:28:59.775Z,25.75
2018-09-21T09:31:26.728Z,25.88
2018-09-21T09:33:53.692Z,25.75
2018-09-21T09:36:20.596Z,26.00
2018-09-21T09:38:47.514Z,26.12
2018-09-21T09:41:14.684Z,26.06
2018-09-21T09:43:41.645Z,26.25
2018-09-21T09:46:08.628Z,26.19
2018-09-21T09:48:35.817Z,26.12
2018-09-21T09:51:02.717Z,26.44
2018-09-21T09:53:29.697Z,26.25
2018-09-21T09:55:56.650Z,26.31
2018-09-21T09:58:23.867Z,26.44
2018-09-21T10:00:50.823Z,26.62
2018-09-21T10:03:17.842Z,26.69
2018-09-21T10:05:44.875Z,26.69
2018-09-21T10:08:12.765Z,26.81
2018-09-21T10:10:40.204Z,26.81
2018-09-21T10:13:07.182Z,26.87
2018-09-21T10:15:34.122Z,26.87
2018-09-21T10:18:01.028Z,26.62
2018-09-21T10:20:27.990Z,26.81
2018-09-21T10:22:54.892Z,26.75
2018-09-21T10:25:21.801Z,26.94
2018-09-21T10:27:49.359Z,26.94
2018-09-21T10:30:16.263Z,26.87
2018-09-21T10:32:43.755Z,26.81
2018-09-21T10:35:10.731Z,26.81
2018-09-21T10:37:37.649Z,27.06
2018-09-21T10:40:04.757Z,27.19
2018-09-21T10:42:31.606Z,27.25
2018-09-21T10:44:58.492Z,27.06
2018-09-21T10:47:25.471Z,27.00
2018-09-21T10:49:52.427Z,26.94
2018-09-21T10:52:19.948Z,26.94
2018-09-21T10:54:46.899Z,26.94
2018-09-21T10:57:14.067Z,27.06
2018-09-21T10:59:41.003Z,27.19
2018-09-21T11:02:08.008Z,27.50
2018-09-21T11:04:35.577Z,27.69
2018-09-21T11:07:02.666Z,27.50
2018-09-21T11:09:30.079Z,27.44
2018-09-21T11:11:56.989Z,27.50
2018-09-21T11:14:24.224Z,27.81
2018-09-21T11:16:51.155Z,27.56
2018-09-21T11:19:18.212Z,27.75
2018-09-21T11:21:45.696Z,27.69
2018-09-21T11:24:12.660Z,27.94
2018-09-21T11:26:39.800Z,28.06
2018-09-21T11:29:06.737Z,28.19
2018-09-21T11:31:33.756Z,28.00
2018-09-21T11:34:00.727Z,28.25
2018-09-21T11:36:27.770Z,28.12
2018-09-21T11:38:54.684Z,28.19
2018-09-21T11:41:21.826Z,28.31
2018-09-21T11:43:48.763Z,28.12
2018-09-21T11:46:15.713Z,28.25
2018-09-21T11:48:42.673Z,28.31
2018-09-21T11:51:09.589Z,28.44
2018-09-21T11:53:36.789Z,28.56
2018-09-21T11:56:03.707Z,28.75
2018-09-21T11:58:30.668Z,28.62
2018-09-21T12:00:58.599Z,28.87
2018-09-21T12:03:25.507Z,28.69
2018-09-21T12:05:52.428Z,29.00
2018-09-21T12:08:19.348Z,28.62
2018-09-21T12:10:46.253Z,28.75
2018-09-21T12:13:13.180Z,28.87
2018-09-21T12:15:40.082Z,28.87
2018-09-21T12:18:07.061Z,29.06
2018-09-21T12:20:33.953Z,28.87
2018-09-21T12:23:01.029Z,28.87
2018-09-21T12:25:27.941Z,28.75
2018-09-21T12:27:54.880Z,28.75
2018-09-21T12:30:21.862Z,28.94
2018-09-21T12:32:48.817Z,28.87
2018-09-21T12:35:15.800Z,28.75
2018-09-21T12:37:42.740Z,28.75
2018-09-21T12:40:09.691Z,28.62
2018-09-21T12:42:36.653Z,28.62
2018-09-21T12:45:03.593Z,28.62
2018-09-21T12:47:31.449Z,28.75
2018-09-21T12:49:58.325Z,28.75
2018-09-21T12:52:25.302Z,28.62
2018-09-21T12:54:52.334Z,28.81
2018-09-21T12:57:19.267Z,28.94
2018-09-21T12:59:46.170Z,28.62
2018-09-21T13:02:13.092Z,28.75
2018-09-21T13:04:40.281Z,28.81
2018-09-21T13:07:07.271Z,28.56
2018-09-21T13:09:34.205Z,28.62
2018-09-21T13:12:01.135Z,28.38
2018-09-21T13:14:28.140Z,28.56
2018-09-21T13:16:55.045Z,28.44
2018-09-21T13:19:22.035Z,28.38
2018-09-21T13:21:49.002Z,28.50
2018-09-21T13:24:15.940Z,28.44
2018-09-21T13:26:42.911Z,28.31
2018-09-21T13:29:09.817Z,28.31
2018-09-21T13:31:36.703Z,28.38
2018-09-21T13:34:03.656Z,28.12
2018-09-21T13:36:30.584Z,28.12
2018-09-21T13:38:57.531Z,28.00
2018-09-21T13:41:24.474Z,28.00
2018-09-21T13:43:51.402Z,28.00
2018-09-21T13:46:18.357Z,27.94
2018-09-21T13:48:45.360Z,28.00
2018-09-21T13:51:12.312Z,27.94
2018-09-21T13:53:39.236Z,27.81
2018-09-21T13:56:06.160Z,27.81
2018-09-21T13:58:33.372Z,27.75
2018-09-21T14:01:00.298Z,27.75
2018-09-21T14:03:29.142Z,27.87
2018-09-21T14:05:59.163Z,27.69
2018-09-21T14:08:26.147Z,27.50
2018-09-21T14:10:53.181Z,27.56
2018-09-21T14:13:20.113Z,27.56
2018-09-21T14:15:47.100Z,27.56
2018-09-21T14:18:14.342Z,27.50
2018-09-21T14:20:41.413Z,27.62
2018-09-21T14:23:08.421Z,27.56
2018-09-21T14:25:35.350Z,27.62
2018-09-21T14:28:02.296Z,27.44
2018-09-21T14:30:29.993Z,27.37
2018-09-21T14:32:57.586Z,27.31
2018-09-21T14:35:24.653Z,27.37
2018-09-21T14:37:51.595Z,27.25
2018-09-21T14:40:18.608Z,27.44
2018-09-21T14:42:45.712Z,27.31
2018-09-21T14:45:13.901Z,26.50
2018-09-21T14:47:40.893Z,25.37
2018-09-21T14:50:08.317Z,24.25
2018-09-21T14:52:35.370Z,23.69
2018-09-21T14:55:02.300Z,22.50
2018-09-21T14:57:30.757Z,22.25
2018-09-21T15:00:01.198Z,21.37
2018-09-21T15:02:28.994Z,21.06
2018-09-21T15:04:56.063Z,20.69
2018-09-21T15:07:23.045Z,20.44
2018-09-21T15:09:50.124Z,20.62
2018-09-21T15:12:21.331Z,20.25
2018-09-21T15:14:48.280Z,20.06
2018-09-21T15:17:15.602Z,19.69
2018-09-21T15:19:42.562Z,19.56
2018-09-21T15:22:09.776Z,19.25
2018-09-21T15:24:36.732Z,19.19
2018-09-21T15:27:03.696Z,18.94
2018-09-21T15:29:45.077Z,18.87
2018-09-21T15:32:12.589Z,18.44
2018-09-21T15:34:39.534Z,18.12
2018-09-21T15:37:07.198Z,17.87
2018-09-21T15:39:34.147Z,17.62
2018-09-21T15:42:01.127Z,17.69
2018-09-21T15:44:28.203Z,17.44
2018-09-21T15:46:55.119Z,17.62
2018-09-21T15:49:22.119Z,17.12
2018-09-21T15:51:51.281Z,17.37
2018-09-21T15:54:18.287Z,17.50
2018-09-21T15:56:45.352Z,17.44
2018-09-21T15:59:12.353Z,17.44
2018-09-21T16:01:40.075Z,16.87
2018-09-21T16:04:07.058Z,16.87
2018-09-21T16:06:34.240Z,17.06
2018-09-21T16:09:03.386Z,16.87
2018-09-21T16:11:30.330Z,16.62
2018-09-21T16:13:57.280Z,16.44
2018-09-21T16:16:24.229Z,16.69
2018-09-21T16:18:51.291Z,16.62
2018-09-21T16:21:18.324Z,16.19
2018-09-21T16:23:45.329Z,15.81
2018-09-21T16:26:14.098Z,15.63
2018-09-21T16:28:41.832Z,15.56
2018-09-21T16:31:08.787Z,15.56
2018-09-21T16:33:35.753Z,15.63
2018-09-21T16:36:02.736Z,15.44
2018-09-21T16:38:29.716Z,15.19
2018-09-21T16:40:56.645Z,15.44
2018-09-21T16:43:23.609Z,15.38
2018-09-21T16:45:50.575Z,15.31
2018-09-21T16:48:17.514Z,15.25
2018-09-21T16:50:44.661Z,15.38
2018-09-21T16:53:11.519Z,15.50
2018-09-21T16:55:38.457Z,15.31
2018-09-21T16:58:05.566Z,15.19
2018-09-21T17:00:32.553Z,15.50
2018-09-21T17:02:59.552Z,15.44
2018-09-21T17:05:26.533Z,15.00
2018-09-21T17:07:53.435Z,15.25
2018-09-21T17:10:20.466Z,14.94
2018-09-21T17:12:47.447Z,15.13
2018-09-21T17:15:14.414Z,15.13
2018-09-21T17:17:41.381Z,15.13
2018-09-21T17:20:08.457Z,15.13
2018-09-21T17:22:36.400Z,15.25
2018-09-21T17:25:03.670Z,15.25
2018-09-21T17:27:30.664Z,15.25
2018-09-21T17:29:57.698Z,15.31
2018-09-21T17:32:24.633Z,15.44
2018-09-21T17:34:51.599Z,15.19
2018-09-21T17:37:18.855Z,15.19
2018-09-21T17:39:45.849Z,15.50
2018-09-21T17:42:12.851Z,15.44
2018-09-21T17:44:39.821Z,15.44
2018-09-21T17:47:06.824Z,15.38
2018-09-21T17:49:33.774Z,15.38
2018-09-21T17:52:00.740Z,15.44
2018-09-21T17:54:27.682Z,15.38
2018-09-21T17:56:54.679Z,15.63
2018-09-21T17:59:21.681Z,15.50
2018-09-21T18:01:48.676Z,15.50
2018-09-21T18:04:15.660Z,15.38
2018-09-21T18:06:45.600Z,15.31
2018-09-21T18:09:12.594Z,15.31
2018-09-21T18:11:39.517Z,15.25
2018-09-21T18:14:06.711Z,15.31
2018-09-21T18:16:33.831Z,15.13
2018-09-21T18:19:01.108Z,15.13
2018-09-21T18:21:28.226Z,15.13
2018-09-21T18:23:58.735Z,15.44
2018-09-21T18:26:25.699Z,15.19
2018-09-21T18:28:52.829Z,15.38
2018-09-21T18:31:19.894Z,15.56
2018-09-21T18:33:46.891Z,15.44
2018-09-21T18:36:14.099Z,15.44
2018-09-21T18:38:41.088Z,15.50
2018-09-21T18:41:08.122Z,15.56
2018-09-21T18:43:35.819Z,15.63
2018-09-21T18:48:50.274Z,15.44
2018-09-21T18:51:17.231Z,15.44
2018-09-21T18:53:44.354Z,15.50
2018-09-21T18:56:11.479Z,15.56
2018-09-21T18:58:39.456Z,15.50
2018-09-21T19:01:07.833Z,15.44
2018-09-21T19:03:35.422Z,15.63
2018-09-21T19:06:02.422Z,15.50
2018-09-21T19:08:38.688Z,15.38
2018-09-21T19:11:21.302Z,15.31
2018-09-21T19:13:48.902Z,15.50
2018-09-21T19:16:16.824Z,15.44
2018-09-21T19:18:43.880Z,15.38
2018-09-21T19:21:10.856Z,15.63
2018-09-21T19:23:37.826Z,15.69
2018-09-21T19:26:04.808Z,15.31
2018-09-21T19:28:31.765Z,15.50
2018-09-21T19:30:58.750Z,15.56
2018-09-21T19:33:25.737Z,15.38
2018-09-21T19:35:54.142Z,15.63
2018-09-21T19:38:21.230Z,15.50
2018-09-21T19:40:56.946Z,15.50
2018-09-21T19:43:24.931Z,15.56
2018-09-21T19:46:03.503Z,15.69
2018-09-21T19:48:30.448Z,15.31
2018-09-21T19:50:57.448Z,15.44
2018-09-21T19:53:24.499Z,15.19
2018-09-21T19:55:51.506Z,15.63
2018-09-21T19:58:18.902Z,15.50
2018-09-21T20:00:46.063Z,15.44
2018-09-21T20:03:13.020Z,15.38
2018-09-21T20:05:48.214Z,15.56
2018-09-21T20:08:16.071Z,15.50
2018-09-21T20:10:43.059Z,15.63
2018-09-21T20:13:10.752Z,15.31
2018-09-21T20:16:25.918Z,15.50
2018-09-21T20:18:52.942Z,15.56
2018-09-21T20:21:19.935Z,15.50
2018-09-21T20:23:46.922Z,15.56
2018-09-21T20:26:13.958Z,15.56
2018-09-21T20:28:40.981Z,15.50
2018-09-21T20:31:13.843Z,15.31
2018-09-21T20:33:41.273Z,15.44
2018-09-21T20:36:08.266Z,15.31
2018-09-21T20:38:35.207Z,15.19
2018-09-21T20:41:02.170Z,15.06
2018-09-21T20:43:30.319Z,15.13
2018-09-21T20:45:58.815Z,15.38
2018-09-21T20:48:25.812Z,15.13
2018-09-21T20:50:52.792Z,15.38
2018-09-21T20:53:19.870Z,15.31
2018-09-21T20:55:46.952Z,15.06
2018-09-21T20:58:13.908Z,15.19
2018-09-21T21:00:40.975Z,15.38
2018-09-21T21:03:07.944Z,15.13
2018-09-21T21:05:34.878Z,15.13
2018-09-21T21:08:02.051Z,15.19
2018-09-21T21:10:29.091Z,15.00
2018-09-21T21:12:56.047Z,15.13
2018-09-21T21:15:23.038Z,15.19
2018-09-21T21:17:50.237Z,15.06
2018-09-21T21:20:17.153Z,15.25
2018-09-21T21:22:44.261Z,15.06
2018-09-21T21:25:11.224Z,15.25
2018-09-21T21:27:38.122Z,19.00
2018-09-21T21:30:05.072Z,20.31
2018-09-21T21:32:32.007Z,20.12
2018-09-21T21:34:59.180Z,19.87
2018-09-21T21:37:26.083Z,20.25
2018-09-21T21:39:53.046Z,18.19
2018-09-21T21:42:20.068Z,16.81
2018-09-21T21:44:47.086Z,15.63
2018-09-21T21:47:14.284Z,15.69
2018-09-21T21:49:41.240Z,15.25
2018-09-21T21:52:08.117Z,15.56
2018-09-21T21:54:35.024Z,15.13
2018-09-21T21:57:01.982Z,15.44
2018-09-21T21:59:28.871Z,15.19
2018-09-21T22:01:57.604Z,15.25
2018-09-21T22:04:25.528Z,15.13
2018-09-21T22:06:52.434Z,14.69
2018-09-21T22:09:19.322Z,14.94
2018-09-21T22:11:52.003Z,15.00
2018-09-21T22:14:18.903Z,14.56
2018-09-21T22:16:45.843Z,14.63
2018-09-21T22:19:12.854Z,14.63
2018-09-21T22:21:39.718Z,14.75
2018-09-21T22:24:06.633Z,15.13
2018-09-21T22:26:33.540Z,14.50
2018-09-21T22:29:00.857Z,14.56
2018-09-21T22:31:28.103Z,14.25
2018-09-21T22:33:55.283Z,14.69
2018-09-21T22:36:22.199Z,14.44
2018-09-21T22:38:49.146Z,14.50
2018-09-21T22:41:16.427Z,14.44
2018-09-21T22:43:43.615Z,14.75
2018-09-21T22:46:10.536Z,14.81
2018-09-21T22:48:37.536Z,14.75
2018-09-21T22:51:04.521Z,14.81
2018-09-21T22:53:31.465Z,14.94
2018-09-21T22:55:58.486Z,14.81
2018-09-21T22:58:25.440Z,14.87
2018-09-21T23:00:53.352Z,14.69
2018-09-21T23:03:20.976Z,14.50
2018-09-21T23:05:47.928Z,14.87
2018-09-21T23:08:14.850Z,14.63
2018-09-21T23:10:41.830Z,14.63
2018-09-21T23:13:08.757Z,14.38
2018-09-21T23:15:35.697Z,14.56
2018-09-21T23:18:02.623Z,14.56
2018-09-21T23:20:29.590Z,14.63
2018-09-21T23:22:56.695Z,14.19
2018-09-21T23:25:23.592Z,14.50
2018-09-21T23:27:50.520Z,14.63
2018-09-21T23:30:17.420Z,14.75
2018-09-21T23:32:44.376Z,14.50
2018-09-21T23:35:11.349Z,14.56
2018-09-21T23:37:38.291Z,14.50
2018-09-21T23:40:05.357Z,14.38
2018-09-21T23:42:32.286Z,14.44
2018-09-21T23:45:00.451Z,14.50
2018-09-21T23:47:27.380Z,14.38
2018-09-21T23:49:54.286Z,14.31
2018-09-21T23:52:21.228Z,14.44
2018-09-21T23:54:48.117Z,14.63
2018-09-21T23:57:15.021Z,14.44
2018-09-21T23:59:42.121Z,14.38
